createdAt,value
2019-03-31T00:03:57.030Z,57.40
2019-03-31T00:09:26.575Z,57.60
2019-03-31T00:14:57.427Z,57.60
2019-03-31T00:20:26.958Z,57.90
2019-03-31T00:25:56.376Z,58.00
2019-03-31T00:31:25.817Z,58.20
2019-03-31T00:36:55.371Z,58.30
2019-03-31T00:42:24.822Z,58.50
2019-03-31T00:47:55.888Z,58.60
2019-03-31T00:53:25.552Z,58.70
2019-03-31T00:58:55.078Z,58.80
2019-03-31T01:04:27.370Z,59.20
2019-03-31T01:09:58.283Z,59.20
2019-03-31T01:15:28.051Z,59.20
2019-03-31T01:20:57.681Z,59.50
2019-03-31T01:26:27.570Z,59.60
2019-03-31T01:31:57.494Z,59.60
2019-03-31T01:37:27.121Z,59.80
2019-03-31T01:42:56.729Z,60.00
2019-03-31T01:48:26.324Z,60.00
2019-03-31T01:53:55.813Z,60.20
2019-03-31T01:59:25.236Z,60.30
2019-03-31T02:04:54.758Z,60.30
2019-03-31T02:10:24.184Z,61.10
2019-03-31T02:15:53.691Z,60.80
2019-03-31T02:21:23.125Z,60.80
2019-03-31T02:26:52.581Z,60.80
2019-03-31T02:32:24.178Z,61.00
2019-03-31T02:37:53.137Z,61.20
2019-03-31T02:43:23.588Z,61.30
2019-03-31T02:48:52.966Z,61.40
2019-03-31T02:54:22.422Z,61.40
2019-03-31T02:59:52.947Z,61.70
2019-03-31T03:05:24.541Z,61.60
2019-03-31T03:10:54.168Z,61.90
2019-03-31T03:16:23.759Z,61.90
2019-03-31T03:21:53.071Z,62.60
2019-03-31T03:27:22.538Z,62.10
2019-03-31T03:33:13.527Z,62.20
2019-03-31T03:38:23.072Z,62.30
2019-03-31T03:43:59.679Z,62.40
2019-03-31T03:49:23.559Z,62.40
2019-03-31T03:54:52.892Z,62.60
2019-03-31T04:00:22.267Z,62.70
2019-03-31T04:05:51.670Z,62.80
2019-03-31T04:11:23.321Z,62.80
2019-03-31T04:16:52.641Z,63.00
2019-03-31T04:22:22.017Z,62.90
2019-03-31T04:27:51.419Z,62.90
2019-03-31T04:33:20.745Z,63.10
2019-03-31T04:38:50.342Z,63.20
2019-03-31T04:44:19.709Z,63.20
2019-03-31T04:49:49.035Z,63.30
2019-03-31T04:55:18.367Z,63.40
2019-03-31T05:00:47.772Z,63.50
2019-03-31T05:06:17.196Z,63.60
2019-03-31T05:11:46.515Z,63.60
2019-03-31T05:17:15.979Z,63.70
2019-03-31T05:22:45.283Z,63.80
2019-03-31T05:28:14.669Z,63.70
2019-03-31T05:33:44.006Z,63.80
2019-03-31T05:39:13.333Z,64.00
2019-03-31T05:44:42.728Z,64.00
2019-03-31T05:50:12.221Z,64.10
2019-03-31T05:55:41.608Z,64.00
2019-03-31T06:01:10.980Z,64.20
2019-03-31T06:06:40.400Z,64.20
2019-03-31T06:12:09.700Z,64.00
2019-03-31T06:17:39.067Z,64.10
2019-03-31T06:23:08.542Z,63.90
2019-03-31T06:28:37.955Z,63.80
2019-03-31T06:34:07.467Z,63.60
2019-03-31T06:39:36.783Z,63.40
2019-03-31T06:45:08.144Z,63.30
2019-03-31T06:50:37.526Z,63.10
2019-03-31T06:56:06.915Z,62.90
2019-03-31T07:01:36.256Z,62.60
2019-03-31T07:07:05.659Z,62.40
2019-03-31T07:12:35.175Z,62.00
2019-03-31T07:18:04.645Z,62.40
2019-03-31T07:23:34.051Z,61.20
2019-03-31T07:29:03.899Z,60.90
2019-03-31T07:34:33.246Z,59.60
2019-03-31T07:40:03.131Z,59.30
2019-03-31T07:45:32.594Z,58.70
2019-03-31T07:51:02.165Z,58.10
2019-03-31T07:56:31.708Z,58.00
2019-03-31T08:02:01.330Z,57.40
2019-03-31T08:07:30.962Z,57.20
2019-03-31T08:13:00.494Z,56.80
2019-03-31T08:18:29.979Z,56.10
2019-03-31T08:23:59.651Z,55.50
2019-03-31T08:29:29.451Z,55.40
2019-03-31T08:34:59.007Z,54.60
2019-03-31T08:40:28.681Z,53.90
2019-03-31T08:45:58.519Z,53.90
2019-03-31T08:51:28.224Z,53.20
2019-03-31T08:56:57.778Z,52.30
2019-03-31T09:02:36.361Z,51.90
2019-03-31T09:08:05.827Z,51.20
2019-03-31T09:13:37.004Z,50.80
2019-03-31T09:19:06.427Z,50.40
2019-03-31T09:24:35.968Z,50.10
2019-03-31T09:30:11.479Z,49.70
2019-03-31T09:35:41.087Z,49.20
2019-03-31T09:41:10.518Z,49.00
2019-03-31T09:46:40.585Z,47.80
2019-03-31T09:52:10.087Z,47.00
2019-03-31T09:57:39.822Z,45.90
2019-03-31T10:03:09.226Z,44.90
2019-03-31T10:08:38.749Z,45.10
2019-03-31T10:14:08.093Z,43.10
2019-03-31T10:19:37.439Z,42.60
2019-03-31T10:25:08.234Z,42.40
2019-03-31T10:30:40.240Z,42.40
2019-03-31T10:36:15.132Z,41.30
2019-03-31T10:41:44.777Z,39.80
2019-03-31T10:47:14.168Z,39.90
2019-03-31T10:52:43.854Z,39.30
2019-03-31T10:58:13.200Z,38.00
2019-03-31T11:03:42.702Z,37.80
2019-03-31T11:09:12.193Z,36.80
2019-03-31T11:14:41.683Z,37.10
2019-03-31T11:20:11.170Z,36.50
2019-03-31T11:25:40.513Z,36.30
2019-03-31T11:31:09.844Z,35.80
2019-03-31T11:36:39.269Z,36.70
2019-03-31T11:42:08.688Z,35.40
2019-03-31T11:47:38.239Z,35.60
2019-03-31T11:53:07.638Z,36.20
2019-03-31T11:58:37.048Z,36.50
2019-03-31T12:04:06.597Z,35.50
2019-03-31T12:09:36.094Z,35.90
2019-03-31T12:15:07.291Z,35.10
2019-03-31T12:20:36.878Z,35.30
2019-03-31T12:26:06.271Z,34.20
2019-03-31T12:31:35.854Z,34.20
2019-03-31T12:37:05.343Z,34.70
2019-03-31T12:42:34.746Z,33.90
2019-03-31T12:48:05.238Z,34.40
2019-03-31T12:53:34.697Z,34.10
2019-03-31T12:59:04.191Z,33.30
2019-03-31T13:04:33.691Z,31.70
2019-03-31T13:10:03.229Z,29.30
2019-03-31T13:15:32.595Z,28.30
2019-03-31T13:21:02.086Z,28.50
2019-03-31T13:26:31.501Z,29.40
2019-03-31T13:32:01.030Z,29.90
2019-03-31T13:37:30.469Z,29.70
2019-03-31T13:42:59.961Z,30.10
2019-03-31T13:48:29.400Z,29.70
2019-03-31T13:53:58.955Z,29.20
2019-03-31T13:59:28.472Z,28.90
2019-03-31T14:04:57.940Z,27.80
2019-03-31T14:10:27.653Z,27.00
2019-03-31T14:15:57.391Z,25.20
2019-03-31T14:21:27.180Z,23.60
2019-03-31T14:26:56.616Z,22.80
2019-03-31T14:32:27.539Z,21.90
2019-03-31T14:37:57.406Z,21.00
2019-03-31T14:43:28.421Z,21.00
2019-03-31T14:48:58.294Z,20.50
2019-03-31T14:54:28.106Z,20.50
2019-03-31T15:00:14.131Z,20.30
2019-03-31T15:05:33.611Z,19.80
2019-03-31T15:11:04.926Z,20.10
2019-03-31T15:16:34.656Z,20.00
2019-03-31T15:22:04.341Z,20.50
2019-03-31T15:27:34.126Z,21.10
2019-03-31T15:33:03.644Z,22.30
2019-03-31T15:38:33.293Z,22.60
2019-03-31T15:44:02.937Z,23.00
2019-03-31T15:49:34.038Z,24.30
2019-03-31T15:55:05.502Z,24.70
2019-03-31T16:00:44.103Z,24.70
2019-03-31T16:06:11.832Z,25.60
2019-03-31T16:11:53.508Z,26.20
2019-03-31T16:17:20.268Z,25.90
2019-03-31T16:22:53.466Z,26.10
2019-03-31T16:28:34.106Z,26.70
2019-03-31T16:34:04.021Z,27.30
2019-03-31T16:39:37.774Z,27.90
2019-03-31T16:45:08.281Z,28.60
2019-03-31T16:50:38.133Z,29.20
2019-03-31T16:56:07.984Z,29.60
2019-03-31T17:01:37.904Z,30.00
2019-03-31T17:07:07.729Z,30.50
2019-03-31T17:12:48.706Z,30.90
2019-03-31T17:18:18.283Z,31.30
2019-03-31T17:23:47.695Z,31.70
2019-03-31T17:29:17.155Z,32.30
2019-03-31T17:34:46.643Z,32.70
2019-03-31T17:40:16.192Z,33.20
2019-03-31T17:45:45.861Z,33.70
2019-03-31T17:51:15.538Z,34.10
2019-03-31T17:56:45.133Z,34.40
2019-03-31T18:02:15.057Z,34.90
2019-03-31T18:07:50.189Z,35.20
2019-03-31T18:13:16.453Z,35.50
2019-03-31T18:18:45.955Z,36.00
2019-03-31T18:24:15.750Z,36.40
2019-03-31T18:29:45.367Z,36.50
2019-03-31T18:35:16.934Z,36.90
2019-03-31T18:40:46.930Z,37.30
2019-03-31T18:46:18.112Z,37.70
2019-03-31T18:51:56.832Z,38.00
2019-03-31T18:57:27.987Z,38.30
2019-03-31T19:03:11.326Z,38.50
2019-03-31T19:08:45.390Z,38.80
2019-03-31T19:14:16.856Z,39.00
2019-03-31T19:19:51.000Z,39.20
2019-03-31T19:25:25.011Z,39.50
2019-03-31T19:31:05.352Z,39.80
2019-03-31T19:36:45.943Z,40.00
2019-03-31T19:42:26.631Z,40.30
2019-03-31T19:48:09.924Z,40.60
2019-03-31T19:53:46.685Z,40.80
2019-03-31T19:59:35.767Z,41.30
2019-03-31T20:05:09.967Z,41.50
2019-03-31T20:10:50.229Z,41.90
2019-03-31T20:16:24.291Z,42.60
2019-03-31T20:21:58.214Z,42.60
2019-03-31T20:27:29.522Z,43.00
2019-03-31T20:33:00.883Z,43.30
2019-03-31T20:38:49.569Z,44.00
2019-03-31T20:44:19.463Z,44.40
2019-03-31T20:49:48.928Z,44.60
2019-03-31T20:55:18.886Z,44.90
2019-03-31T21:00:48.640Z,45.20
2019-03-31T21:06:18.134Z,45.60
2019-03-31T21:11:47.500Z,45.90
2019-03-31T21:17:17.065Z,46.90
2019-03-31T21:22:46.502Z,47.10
2019-03-31T21:28:15.965Z,47.40
2019-03-31T21:33:45.430Z,47.60
2019-03-31T21:39:14.850Z,47.60
2019-03-31T21:44:44.263Z,47.70
2019-03-31T21:50:14.365Z,48.00
2019-03-31T21:55:44.767Z,48.20
2019-03-31T22:01:14.740Z,48.40
2019-03-31T22:06:44.117Z,48.60
2019-03-31T22:12:13.429Z,48.80
2019-03-31T22:17:45.948Z,49.30
2019-03-31T22:23:18.546Z,49.70
2019-03-31T22:28:48.204Z,50.10
2019-03-31T22:34:17.702Z,50.60
2019-03-31T22:39:47.081Z,51.00
2019-03-31T22:45:16.598Z,51.40
2019-03-31T22:50:46.024Z,51.60
2019-03-31T22:56:16.481Z,51.90
2019-03-31T23:01:45.799Z,52.10
2019-03-31T23:07:15.214Z,52.50
2019-03-31T23:12:44.601Z,53.50
2019-03-31T23:18:14.120Z,53.20
2019-03-31T23:23:43.600Z,53.70
2019-03-31T23:29:13.052Z,53.90
2019-03-31T23:34:42.637Z,54.20
2019-03-31T23:40:12.197Z,54.40
2019-03-31T23:45:41.531Z,54.60
2019-03-31T23:51:10.986Z,54.90
2019-03-31T23:56:42.191Z,55.20
